logo
Search for airport 
image banner adimage banner adimage banner ad
image banner ad

SHAV - Alta Vista

Located in Zapallar, Chile

ICAO - , IATA -

Data provided by Airmate  

General information

Coordinates: S32°37'18" W71°23'58"
Elevation is 437 feet MSL.
 
View others Airports in Valparaíso

Operational data

Special qualification required
Current time UTC:
Current local time:
Weather at : SCVM - Vina Del Mar ( 37 km )
METAR: SCVM 162000Z 33006KT CAVOK 17/06 Q1017
TAF: TAF SCVM 161611Z 1618/1718 32010KT CAVOK TX17/1619Z TN06/1710Z BECMG 1701/1703 15004KT TEMPO 1708/1712 VRB02KT 3000 BR SCT008 BECMG 1715/1717 30008KT
View NOTAMs / SUP AIP / TFR affecting this airport [VIEW]
Communications frequencies: [VIEW]

Runways:

Airport contact information

Address: Zapallar Chile

Satellite view of SHAV